sensor_id;sensor_type;location;lat;lon;timestamp;temperature;humidity
8988;DHT22;4529;51.360;12.474;2023-05-07T00:02:04;11.10;99.90
8988;DHT22;4529;51.360;12.474;2023-05-07T00:07:07;11.10;99.90
8988;DHT22;4529;51.360;12.474;2023-05-07T00:12:11;11.10;99.90
8988;DHT22;4529;51.360;12.474;2023-05-07T00:17:15;11.20;99.90
8988;DHT22;4529;51.360;12.474;2023-05-07T00:22:19;11.50;99.90
8988;DHT22;4529;51.360;12.474;2023-05-07T00:27:24;11.70;99.90
8988;DHT22;4529;51.360;12.474;2023-05-07T00:32:28;11.90;99.90
8988;DHT22;4529;51.360;12.474;2023-05-07T00:37:32;12.00;99.90
8988;DHT22;4529;51.360;12.474;2023-05-07T00:42:36;12.20;99.90
8988;DHT22;4529;51.360;12.474;2023-05-07T00:47:40;12.20;99.90
8988;DHT22;4529;51.360;12.474;2023-05-07T00:52:44;12.30;99.90
8988;DHT22;4529;51.360;12.474;2023-05-07T00:57:48;12.30;99.90
8988;DHT22;4529;51.360;12.474;2023-05-07T01:02:52;12.40;99.90
8988;DHT22;4529;51.360;12.474;2023-05-07T01:07:57;12.40;99.90
8988;DHT22;4529;51.360;12.474;2023-05-07T01:13:01;12.40;99.90
8988;DHT22;4529;51.360;12.474;2023-05-07T01:18:05;12.50;99.90
8988;DHT22;4529;51.360;12.474;2023-05-07T01:23:09;12.50;99.90
8988;DHT22;4529;51.360;12.474;2023-05-07T01:28:13;12.50;99.90
8988;DHT22;4529;51.360;12.474;2023-05-07T01:33:18;12.50;99.90
8988;DHT22;4529;51.360;12.474;2023-05-07T01:38:21;12.50;99.90
8988;DHT22;4529;51.360;12.474;2023-05-07T01:43:23;12.50;99.90
8988;DHT22;4529;51.360;12.474;2023-05-07T01:48:27;12.50;99.90
8988;DHT22;4529;51.360;12.474;2023-05-07T01:53:40;12.40;99.90
8988;DHT22;4529;51.360;12.474;2023-05-07T01:58:34;12.50;99.90
8988;DHT22;4529;51.360;12.474;2023-05-07T02:03:37;12.40;99.90
8988;DHT22;4529;51.360;12.474;2023-05-07T02:08:41;12.30;99.90
8988;DHT22;4529;51.360;12.474;2023-05-07T02:13:44;12.10;99.90
8988;DHT22;4529;51.360;12.474;2023-05-07T02:18:48;11.90;99.90
8988;DHT22;4529;51.360;12.474;2023-05-07T02:23:51;11.60;99.90
8988;DHT22;4529;51.360;12.474;2023-05-07T02:28:55;11.40;99.90
8988;DHT22;4529;51.360;12.474;2023-05-07T02:33:58;11.20;99.90
8988;DHT22;4529;51.360;12.474;2023-05-07T02:39:02;11.20;99.90
8988;DHT22;4529;51.360;12.474;2023-05-07T02:44:05;11.00;99.90
8988;DHT22;4529;51.360;12.474;2023-05-07T02:49:09;11.00;99.90
8988;DHT22;4529;51.360;12.474;2023-05-07T02:54:12;11.00;99.90
8988;DHT22;4529;51.360;12.474;2023-05-07T02:59:15;10.90;99.90
8988;DHT22;4529;51.360;12.474;2023-05-07T03:04:19;10.90;99.90
8988;DHT22;4529;51.360;12.474;2023-05-07T03:09:23;10.90;99.90
8988;DHT22;4529;51.360;12.474;2023-05-07T03:14:27;10.90;99.90
8988;DHT22;4529;51.360;12.474;2023-05-07T03:19:31;10.90;99.90
8988;DHT22;4529;51.360;12.474;2023-05-07T03:24:35;10.90;99.90
8988;DHT22;4529;51.360;12.474;2023-05-07T03:29:40;10.90;99.90
8988;DHT22;4529;51.360;12.474;2023-05-07T03:34:43;10.90;99.90
8988;DHT22;4529;51.360;12.474;2023-05-07T03:39:47;10.80;99.90
8988;DHT22;4529;51.360;12.474;2023-05-07T03:44:50;10.80;99.90
8988;DHT22;4529;51.360;12.474;2023-05-07T03:49:54;10.80;99.90
8988;DHT22;4529;51.360;12.474;2023-05-07T03:54:57;10.90;99.90
8988;DHT22;4529;51.360;12.474;2023-05-07T04:00:00;10.90;99.90
8988;DHT22;4529;51.360;12.474;2023-05-07T04:05:04;10.80;99.90
8988;DHT22;4529;51.360;12.474;2023-05-07T04:10:08;10.80;99.90
8988;DHT22;4529;51.360;12.474;2023-05-07T04:15:12;10.80;99.90
8988;DHT22;4529;51.360;12.474;2023-05-07T04:20:16;10.90;99.90
8988;DHT22;4529;51.360;12.474;2023-05-07T04:25:20;10.90;99.90
8988;DHT22;4529;51.360;12.474;2023-05-07T04:30:23;10.80;99.90
8988;DHT22;4529;51.360;12.474;2023-05-07T04:35:27;10.90;99.90
8988;DHT22;4529;51.360;12.474;2023-05-07T04:40:30;10.90;99.90
8988;DHT22;4529;51.360;12.474;2023-05-07T04:45:34;10.90;99.90
8988;DHT22;4529;51.360;12.474;2023-05-07T04:50:37;10.90;99.90
8988;DHT22;4529;51.360;12.474;2023-05-07T04:55:41;10.90;99.90
8988;DHT22;4529;51.360;12.474;2023-05-07T05:00:44;10.90;99.90
8988;DHT22;4529;51.360;12.474;2023-05-07T05:05:49;11.00;99.90
8988;DHT22;4529;51.360;12.474;2023-05-07T05:10:51;10.90;99.90
8988;DHT22;4529;51.360;12.474;2023-05-07T05:15:54;10.90;99.90
8988;DHT22;4529;51.360;12.474;2023-05-07T05:20:58;10.90;99.90
8988;DHT22;4529;51.360;12.474;2023-05-07T05:26:01;10.90;99.90
8988;DHT22;4529;51.360;12.474;2023-05-07T05:31:06;10.90;99.90
8988;DHT22;4529;51.360;12.474;2023-05-07T05:36:12;10.80;99.90
8988;DHT22;4529;51.360;12.474;2023-05-07T05:41:15;10.90;99.90
8988;DHT22;4529;51.360;12.474;2023-05-07T05:46:19;10.80;99.90
8988;DHT22;4529;51.360;12.474;2023-05-07T05:51:22;10.70;99.90
8988;DHT22;4529;51.360;12.474;2023-05-07T05:56:26;10.80;99.90
8988;DHT22;4529;51.360;12.474;2023-05-07T06:01:29;10.80;99.90
8988;DHT22;4529;51.360;12.474;2023-05-07T06:06:33;10.90;99.90
8988;DHT22;4529;51.360;12.474;2023-05-07T06:11:36;11.00;99.90
8988;DHT22;4529;51.360;12.474;2023-05-07T06:16:40;11.00;99.90
8988;DHT22;4529;51.360;12.474;2023-05-07T06:21:43;11.00;99.90
8988;DHT22;4529;51.360;12.474;2023-05-07T06:26:47;11.20;99.90
8988;DHT22;4529;51.360;12.474;2023-05-07T06:31:50;11.20;99.90
8988;DHT22;4529;51.360;12.474;2023-05-07T06:36:54;11.20;99.90
8988;DHT22;4529;51.360;12.474;2023-05-07T06:41:57;11.20;99.90
8988;DHT22;4529;51.360;12.474;2023-05-07T06:47:00;11.30;99.90
8988;DHT22;4529;51.360;12.474;2023-05-07T06:52:04;11.30;99.90
8988;DHT22;4529;51.360;12.474;2023-05-07T06:57:07;11.20;99.90
8988;DHT22;4529;51.360;12.474;2023-05-07T07:02:11;11.30;99.90
8988;DHT22;4529;51.360;12.474;2023-05-07T07:07:14;11.40;99.90
8988;DHT22;4529;51.360;12.474;2023-05-07T07:12:18;11.50;99.90
8988;DHT22;4529;51.360;12.474;2023-05-07T07:17:21;11.60;99.90
8988;DHT22;4529;51.360;12.474;2023-05-07T07:22:25;11.60;99.90
8988;DHT22;4529;51.360;12.474;2023-05-07T07:27:28;11.70;99.90
8988;DHT22;4529;51.360;12.474;2023-05-07T07:32:32;11.70;99.90
8988;DHT22;4529;51.360;12.474;2023-05-07T07:37:35;11.80;99.90
8988;DHT22;4529;51.360;12.474;2023-05-07T07:42:39;11.80;99.90
8988;DHT22;4529;51.360;12.474;2023-05-07T07:47:42;11.90;99.90
8988;DHT22;4529;51.360;12.474;2023-05-07T07:52:46;11.90;99.90
8988;DHT22;4529;51.360;12.474;2023-05-07T07:57:49;11.90;99.90
8988;DHT22;4529;51.360;12.474;2023-05-07T08:02:52;12.00;99.90
8988;DHT22;4529;51.360;12.474;2023-05-07T08:07:56;11.90;99.90
8988;DHT22;4529;51.360;12.474;2023-05-07T08:13:00;11.90;99.90
8988;DHT22;4529;51.360;12.474;2023-05-07T08:18:03;11.90;99.90
8988;DHT22;4529;51.360;12.474;2023-05-07T08:23:06;11.90;99.90
8988;DHT22;4529;51.360;12.474;2023-05-07T08:28:10;11.90;99.90
8988;DHT22;4529;51.360;12.474;2023-05-07T08:33:13;12.00;99.90
8988;DHT22;4529;51.360;12.474;2023-05-07T08:38:17;11.90;99.90
8988;DHT22;4529;51.360;12.474;2023-05-07T08:43:20;12.00;99.90
8988;DHT22;4529;51.360;12.474;2023-05-07T08:48:25;12.00;99.90
8988;DHT22;4529;51.360;12.474;2023-05-07T08:53:27;12.10;99.90
8988;DHT22;4529;51.360;12.474;2023-05-07T08:58:31;12.10;99.90
8988;DHT22;4529;51.360;12.474;2023-05-07T09:03:34;12.10;99.90
8988;DHT22;4529;51.360;12.474;2023-05-07T09:08:38;12.10;99.90
8988;DHT22;4529;51.360;12.474;2023-05-07T09:13:41;12.10;99.90
8988;DHT22;4529;51.360;12.474;2023-05-07T09:18:44;12.20;99.90
8988;DHT22;4529;51.360;12.474;2023-05-07T09:23:52;12.20;99.90
8988;DHT22;4529;51.360;12.474;2023-05-07T09:28:52;12.20;99.90
8988;DHT22;4529;51.360;12.474;2023-05-07T09:33:55;12.20;99.90
8988;DHT22;4529;51.360;12.474;2023-05-07T09:39:02;12.20;99.90
8988;DHT22;4529;51.360;12.474;2023-05-07T09:44:05;12.20;99.90
8988;DHT22;4529;51.360;12.474;2023-05-07T09:49:16;12.20;99.90
8988;DHT22;4529;51.360;12.474;2023-05-07T09:54:16;12.20;99.90
8988;DHT22;4529;51.360;12.474;2023-05-07T09:59:19;12.30;99.90
8988;DHT22;4529;51.360;12.474;2023-05-07T10:04:24;12.30;99.90
8988;DHT22;4529;51.360;12.474;2023-05-07T10:09:28;12.40;99.90
8988;DHT22;4529;51.360;12.474;2023-05-07T10:14:32;12.60;99.90
8988;DHT22;4529;51.360;12.474;2023-05-07T10:19:36;12.90;99.90
8988;DHT22;4529;51.360;12.474;2023-05-07T10:24:40;13.10;99.90
8988;DHT22;4529;51.360;12.474;2023-05-07T10:29:57;13.30;99.90
8988;DHT22;4529;51.360;12.474;2023-05-07T10:34:56;13.20;99.90
8988;DHT22;4529;51.360;12.474;2023-05-07T10:39:59;13.40;99.90
8988;DHT22;4529;51.360;12.474;2023-05-07T10:45:15;13.40;99.90
8988;DHT22;4529;51.360;12.474;2023-05-07T10:50:22;13.50;99.90
8988;DHT22;4529;51.360;12.474;2023-05-07T10:55:25;13.50;99.90
8988;DHT22;4529;51.360;12.474;2023-05-07T11:05:32;13.80;99.90
8988;DHT22;4529;51.360;12.474;2023-05-07T11:10:51;13.90;99.90
8988;DHT22;4529;51.360;12.474;2023-05-07T11:15:54;14.00;99.90
8988;DHT22;4529;51.360;12.474;2023-05-07T11:20:58;14.10;99.90
8988;DHT22;4529;51.360;12.474;2023-05-07T11:26:03;14.10;99.90
8988;DHT22;4529;51.360;12.474;2023-05-07T11:31:07;14.10;99.90
8988;DHT22;4529;51.360;12.474;2023-05-07T11:36:11;14.20;99.90
8988;DHT22;4529;51.360;12.474;2023-05-07T11:41:15;14.20;99.90
8988;DHT22;4529;51.360;12.474;2023-05-07T11:46:19;14.20;99.90
8988;DHT22;4529;51.360;12.474;2023-05-07T11:51:24;14.30;99.90
8988;DHT22;4529;51.360;12.474;2023-05-07T11:56:27;14.40;99.90
8988;DHT22;4529;51.360;12.474;2023-05-07T12:01:31;14.30;99.90
8988;DHT22;4529;51.360;12.474;2023-05-07T12:06:36;14.40;99.90
8988;DHT22;4529;51.360;12.474;2023-05-07T12:11:38;14.40;99.90
8988;DHT22;4529;51.360;12.474;2023-05-07T12:16:41;14.40;99.90
8988;DHT22;4529;51.360;12.474;2023-05-07T12:21:45;14.40;99.90
8988;DHT22;4529;51.360;12.474;2023-05-07T12:26:48;14.50;99.90
8988;DHT22;4529;51.360;12.474;2023-05-07T12:31:52;14.40;99.90
8988;DHT22;4529;51.360;12.474;2023-05-07T12:36:55;14.40;99.90
8988;DHT22;4529;51.360;12.474;2023-05-07T12:41:59;14.40;99.90
8988;DHT22;4529;51.360;12.474;2023-05-07T12:47:02;14.40;99.90
8988;DHT22;4529;51.360;12.474;2023-05-07T12:52:06;14.60;99.90
8988;DHT22;4529;51.360;12.474;2023-05-07T12:57:10;14.60;99.90
8988;DHT22;4529;51.360;12.474;2023-05-07T13:02:13;14.70;99.90
8988;DHT22;4529;51.360;12.474;2023-05-07T13:07:17;14.80;99.90
8988;DHT22;4529;51.360;12.474;2023-05-07T13:12:20;14.90;99.90
8988;DHT22;4529;51.360;12.474;2023-05-07T13:17:23;14.90;99.90
8988;DHT22;4529;51.360;12.474;2023-05-07T13:22:27;14.90;99.90
8988;DHT22;4529;51.360;12.474;2023-05-07T13:27:31;15.00;99.90
8988;DHT22;4529;51.360;12.474;2023-05-07T13:32:34;15.00;99.90
8988;DHT22;4529;51.360;12.474;2023-05-07T13:37:37;15.10;99.90
8988;DHT22;4529;51.360;12.474;2023-05-07T13:42:41;15.20;99.90
8988;DHT22;4529;51.360;12.474;2023-05-07T13:47:45;15.20;99.90
8988;DHT22;4529;51.360;12.474;2023-05-07T13:52:48;15.20;99.90
8988;DHT22;4529;51.360;12.474;2023-05-07T13:57:58;15.20;99.90
8988;DHT22;4529;51.360;12.474;2023-05-07T14:03:01;15.20;99.90
8988;DHT22;4529;51.360;12.474;2023-05-07T14:08:04;15.20;99.90
8988;DHT22;4529;51.360;12.474;2023-05-07T14:13:08;15.30;99.90
8988;DHT22;4529;51.360;12.474;2023-05-07T14:18:14;15.20;99.90
8988;DHT22;4529;51.360;12.474;2023-05-07T14:23:15;15.30;99.90
8988;DHT22;4529;51.360;12.474;2023-05-07T14:28:18;15.30;99.90
8988;DHT22;4529;51.360;12.474;2023-05-07T14:33:22;15.30;99.90
8988;DHT22;4529;51.360;12.474;2023-05-07T14:38:25;15.30;99.90
8988;DHT22;4529;51.360;12.474;2023-05-07T14:43:29;15.30;99.90
8988;DHT22;4529;51.360;12.474;2023-05-07T14:48:32;15.30;99.90
8988;DHT22;4529;51.360;12.474;2023-05-07T14:53:36;15.40;99.90
8988;DHT22;4529;51.360;12.474;2023-05-07T14:58:39;15.40;99.90
8988;DHT22;4529;51.360;12.474;2023-05-07T15:03:42;15.50;99.90
8988;DHT22;4529;51.360;12.474;2023-05-07T15:08:46;15.50;99.90
8988;DHT22;4529;51.360;12.474;2023-05-07T15:13:50;15.40;99.90
8988;DHT22;4529;51.360;12.474;2023-05-07T15:18:54;15.40;99.90
8988;DHT22;4529;51.360;12.474;2023-05-07T15:23:57;15.40;99.90
8988;DHT22;4529;51.360;12.474;2023-05-07T15:29:00;15.40;99.90
8988;DHT22;4529;51.360;12.474;2023-05-07T15:34:04;15.40;99.90
8988;DHT22;4529;51.360;12.474;2023-05-07T15:39:08;15.40;99.90
8988;DHT22;4529;51.360;12.474;2023-05-07T15:44:12;15.40;99.90
8988;DHT22;4529;51.360;12.474;2023-05-07T15:49:15;15.40;99.90
8988;DHT22;4529;51.360;12.474;2023-05-07T15:54:19;15.30;99.90
8988;DHT22;4529;51.360;12.474;2023-05-07T15:59:23;15.30;99.90
8988;DHT22;4529;51.360;12.474;2023-05-07T16:04:26;15.30;99.90
8988;DHT22;4529;51.360;12.474;2023-05-07T16:09:30;15.30;99.90
8988;DHT22;4529;51.360;12.474;2023-05-07T16:14:33;15.30;99.90
8988;DHT22;4529;51.360;12.474;2023-05-07T16:19:37;15.20;99.90
8988;DHT22;4529;51.360;12.474;2023-05-07T16:24:41;15.20;99.90
8988;DHT22;4529;51.360;12.474;2023-05-07T16:29:46;15.10;99.90
8988;DHT22;4529;51.360;12.474;2023-05-07T16:34:49;15.00;99.90
8988;DHT22;4529;51.360;12.474;2023-05-07T16:39:53;14.70;99.90
8988;DHT22;4529;51.360;12.474;2023-05-07T16:44:56;14.00;99.90
8988;DHT22;4529;51.360;12.474;2023-05-07T16:50:01;13.60;99.90
8988;DHT22;4529;51.360;12.474;2023-05-07T16:55:05;13.50;99.90
8988;DHT22;4529;51.360;12.474;2023-05-07T17:00:10;13.50;99.90
8988;DHT22;4529;51.360;12.474;2023-05-07T17:05:13;13.50;99.90
8988;DHT22;4529;51.360;12.474;2023-05-07T17:10:17;13.80;99.90
8988;DHT22;4529;51.360;12.474;2023-05-07T17:15:20;14.00;99.90
8988;DHT22;4529;51.360;12.474;2023-05-07T17:20:24;14.10;99.90
8988;DHT22;4529;51.360;12.474;2023-05-07T17:25:27;14.10;99.90
8988;DHT22;4529;51.360;12.474;2023-05-07T17:30:30;14.20;99.90
8988;DHT22;4529;51.360;12.474;2023-05-07T17:35:34;14.20;99.90
8988;DHT22;4529;51.360;12.474;2023-05-07T17:40:37;13.90;99.90
8988;DHT22;4529;51.360;12.474;2023-05-07T17:45:41;14.00;99.90
8988;DHT22;4529;51.360;12.474;2023-05-07T17:50:44;13.50;99.90
8988;DHT22;4529;51.360;12.474;2023-05-07T17:55:48;13.00;99.90
8988;DHT22;4529;51.360;12.474;2023-05-07T18:00:55;13.10;99.90
8988;DHT22;4529;51.360;12.474;2023-05-07T18:05:58;13.10;99.90
8988;DHT22;4529;51.360;12.474;2023-05-07T18:11:02;12.80;99.90
8988;DHT22;4529;51.360;12.474;2023-05-07T18:16:05;12.70;99.90
8988;DHT22;4529;51.360;12.474;2023-05-07T18:21:09;12.70;99.90
8988;DHT22;4529;51.360;12.474;2023-05-07T18:26:12;12.50;99.90
8988;DHT22;4529;51.360;12.474;2023-05-07T18:31:16;12.40;99.90
8988;DHT22;4529;51.360;12.474;2023-05-07T18:36:19;12.30;99.90
8988;DHT22;4529;51.360;12.474;2023-05-07T18:41:22;12.30;99.90
8988;DHT22;4529;51.360;12.474;2023-05-07T18:46:26;12.10;99.90
8988;DHT22;4529;51.360;12.474;2023-05-07T18:51:29;12.00;99.90
8988;DHT22;4529;51.360;12.474;2023-05-07T18:56:33;12.00;99.90
8988;DHT22;4529;51.360;12.474;2023-05-07T19:01:36;11.90;99.90
8988;DHT22;4529;51.360;12.474;2023-05-07T19:06:40;11.80;99.90
8988;DHT22;4529;51.360;12.474;2023-05-07T19:11:43;11.70;99.90
8988;DHT22;4529;51.360;12.474;2023-05-07T19:16:47;11.60;99.90
8988;DHT22;4529;51.360;12.474;2023-05-07T19:21:50;11.60;99.90
8988;DHT22;4529;51.360;12.474;2023-05-07T19:26:54;11.50;99.90
8988;DHT22;4529;51.360;12.474;2023-05-07T19:31:57;11.40;99.90
8988;DHT22;4529;51.360;12.474;2023-05-07T19:37:01;11.30;99.90
8988;DHT22;4529;51.360;12.474;2023-05-07T19:42:04;11.20;99.90
8988;DHT22;4529;51.360;12.474;2023-05-07T19:47:08;11.20;99.90
8988;DHT22;4529;51.360;12.474;2023-05-07T19:52:11;11.10;99.90
8988;DHT22;4529;51.360;12.474;2023-05-07T19:57:14;11.10;99.90
8988;DHT22;4529;51.360;12.474;2023-05-07T20:02:19;11.00;99.90
8988;DHT22;4529;51.360;12.474;2023-05-07T20:07:22;10.90;99.90
8988;DHT22;4529;51.360;12.474;2023-05-07T20:12:25;10.90;99.90
8988;DHT22;4529;51.360;12.474;2023-05-07T20:17:29;10.90;99.90
8988;DHT22;4529;51.360;12.474;2023-05-07T20:22:32;10.80;99.90
8988;DHT22;4529;51.360;12.474;2023-05-07T20:27:36;10.80;99.90
8988;DHT22;4529;51.360;12.474;2023-05-07T20:32:39;10.70;99.90
8988;DHT22;4529;51.360;12.474;2023-05-07T20:37:44;10.70;99.90
8988;DHT22;4529;51.360;12.474;2023-05-07T20:42:47;10.70;99.90
8988;DHT22;4529;51.360;12.474;2023-05-07T20:47:50;10.60;99.90
8988;DHT22;4529;51.360;12.474;2023-05-07T20:52:55;10.60;99.90
8988;DHT22;4529;51.360;12.474;2023-05-07T20:57:58;10.50;99.90
8988;DHT22;4529;51.360;12.474;2023-05-07T21:03:02;10.50;99.90
8988;DHT22;4529;51.360;12.474;2023-05-07T21:08:06;10.40;99.90
8988;DHT22;4529;51.360;12.474;2023-05-07T21:13:10;10.40;99.90
8988;DHT22;4529;51.360;12.474;2023-05-07T21:18:13;10.40;99.90
8988;DHT22;4529;51.360;12.474;2023-05-07T21:23:17;10.40;99.90
8988;DHT22;4529;51.360;12.474;2023-05-07T21:28:21;10.30;99.90
8988;DHT22;4529;51.360;12.474;2023-05-07T21:33:25;10.30;99.90
8988;DHT22;4529;51.360;12.474;2023-05-07T21:38:28;10.30;99.90
8988;DHT22;4529;51.360;12.474;2023-05-07T21:43:32;10.30;99.90
8988;DHT22;4529;51.360;12.474;2023-05-07T21:48:35;10.20;99.90
8988;DHT22;4529;51.360;12.474;2023-05-07T21:53:39;10.20;99.90
8988;DHT22;4529;51.360;12.474;2023-05-07T21:58:43;10.10;99.90
8988;DHT22;4529;51.360;12.474;2023-05-07T22:03:47;10.10;99.90
8988;DHT22;4529;51.360;12.474;2023-05-07T22:08:51;10.00;99.90
8988;DHT22;4529;51.360;12.474;2023-05-07T22:13:55;10.00;99.90
8988;DHT22;4529;51.360;12.474;2023-05-07T22:18:59;10.00;99.90
8988;DHT22;4529;51.360;12.474;2023-05-07T22:24:04;10.00;99.90
8988;DHT22;4529;51.360;12.474;2023-05-07T22:29:07;9.90;99.90
8988;DHT22;4529;51.360;12.474;2023-05-07T22:34:11;9.90;99.90
8988;DHT22;4529;51.360;12.474;2023-05-07T22:39:15;9.90;99.90
8988;DHT22;4529;51.360;12.474;2023-05-07T22:44:18;9.80;99.90
8988;DHT22;4529;51.360;12.474;2023-05-07T22:49:22;9.80;99.90
8988;DHT22;4529;51.360;12.474;2023-05-07T22:54:25;9.70;99.90
8988;DHT22;4529;51.360;12.474;2023-05-07T22:59:29;9.70;99.90
8988;DHT22;4529;51.360;12.474;2023-05-07T23:04:33;9.60;99.90
8988;DHT22;4529;51.360;12.474;2023-05-07T23:09:37;9.60;99.90
8988;DHT22;4529;51.360;12.474;2023-05-07T23:14:40;9.50;99.90
8988;DHT22;4529;51.360;12.474;2023-05-07T23:19:44;9.50;99.90
8988;DHT22;4529;51.360;12.474;2023-05-07T23:24:47;9.50;99.90
8988;DHT22;4529;51.360;12.474;2023-05-07T23:29:51;9.50;99.90
8988;DHT22;4529;51.360;12.474;2023-05-07T23:34:54;9.40;99.90
8988;DHT22;4529;51.360;12.474;2023-05-07T23:39:58;9.40;99.90
8988;DHT22;4529;51.360;12.474;2023-05-07T23:45:02;9.30;99.90
8988;DHT22;4529;51.360;12.474;2023-05-07T23:50:05;9.30;99.90
8988;DHT22;4529;51.360;12.474;2023-05-07T23:55:09;9.20;99.90
